sensor_id;sensor_type;location;lat;lon;timestamp;temperature;humidity
12604;DHT22;6367;52.508;13.284;2023-11-18T00:00:38;9.50;99.90
12604;DHT22;6367;52.508;13.284;2023-11-18T00:03:04;9.40;99.90
12604;DHT22;6367;52.508;13.284;2023-11-18T00:05:30;9.50;99.90
12604;DHT22;6367;52.508;13.284;2023-11-18T00:07:56;9.40;99.90
12604;DHT22;6367;52.508;13.284;2023-11-18T00:10:22;9.30;99.90
12604;DHT22;6367;52.508;13.284;2023-11-18T00:12:49;9.40;99.90
12604;DHT22;6367;52.508;13.284;2023-11-18T00:15:15;9.40;99.90
12604;DHT22;6367;52.508;13.284;2023-11-18T00:17:41;9.40;99.90
12604;DHT22;6367;52.508;13.284;2023-11-18T00:20:07;9.40;99.90
12604;DHT22;6367;52.508;13.284;2023-11-18T00:22:38;9.40;99.90
12604;DHT22;6367;52.508;13.284;2023-11-18T00:25:05;9.50;99.90
12604;DHT22;6367;52.508;13.284;2023-11-18T00:27:33;9.50;99.90
12604;DHT22;6367;52.508;13.284;2023-11-18T00:30:02;9.60;99.90
12604;DHT22;6367;52.508;13.284;2023-11-18T00:32:31;9.40;99.90
12604;DHT22;6367;52.508;13.284;2023-11-18T00:34:57;9.40;99.90
12604;DHT22;6367;52.508;13.284;2023-11-18T00:37:22;9.40;99.90
12604;DHT22;6367;52.508;13.284;2023-11-18T00:39:48;9.40;99.90
12604;DHT22;6367;52.508;13.284;2023-11-18T00:42:14;9.40;99.90
12604;DHT22;6367;52.508;13.284;2023-11-18T00:44:39;9.60;99.90
12604;DHT22;6367;52.508;13.284;2023-11-18T00:47:06;9.50;99.90
12604;DHT22;6367;52.508;13.284;2023-11-18T00:49:32;9.40;99.90
12604;DHT22;6367;52.508;13.284;2023-11-18T00:51:59;8.30;99.90
12604;DHT22;6367;52.508;13.284;2023-11-18T00:54:25;10.10;99.90
12604;DHT22;6367;52.508;13.284;2023-11-18T00:56:50;9.40;99.90
12604;DHT22;6367;52.508;13.284;2023-11-18T00:59:16;9.30;99.90
12604;DHT22;6367;52.508;13.284;2023-11-18T01:01:42;9.40;99.90
12604;DHT22;6367;52.508;13.284;2023-11-18T01:04:08;9.50;99.90
12604;DHT22;6367;52.508;13.284;2023-11-18T01:06:34;9.70;99.90
12604;DHT22;6367;52.508;13.284;2023-11-18T01:09:00;9.50;99.90
12604;DHT22;6367;52.508;13.284;2023-11-18T01:11:29;9.40;99.90
12604;DHT22;6367;52.508;13.284;2023-11-18T01:13:54;9.40;99.90
12604;DHT22;6367;52.508;13.284;2023-11-18T01:16:21;9.40;99.90
12604;DHT22;6367;52.508;13.284;2023-11-18T01:18:47;9.40;99.90
12604;DHT22;6367;52.508;13.284;2023-11-18T01:21:13;9.40;99.90
12604;DHT22;6367;52.508;13.284;2023-11-18T01:23:39;9.40;99.90
12604;DHT22;6367;52.508;13.284;2023-11-18T01:26:10;9.40;99.90
12604;DHT22;6367;52.508;13.284;2023-11-18T01:28:38;9.40;99.90
12604;DHT22;6367;52.508;13.284;2023-11-18T01:31:08;9.90;99.90
12604;DHT22;6367;52.508;13.284;2023-11-18T01:33:37;9.30;99.90
12604;DHT22;6367;52.508;13.284;2023-11-18T01:36:06;9.40;99.90
12604;DHT22;6367;52.508;13.284;2023-11-18T01:38:31;9.40;99.90
12604;DHT22;6367;52.508;13.284;2023-11-18T01:40:57;9.30;99.90
12604;DHT22;6367;52.508;13.284;2023-11-18T01:43:23;9.30;99.90
12604;DHT22;6367;52.508;13.284;2023-11-18T01:45:48;9.20;99.90
12604;DHT22;6367;52.508;13.284;2023-11-18T01:48:15;9.70;99.90
12604;DHT22;6367;52.508;13.284;2023-11-18T01:50:44;9.20;99.90
12604;DHT22;6367;52.508;13.284;2023-11-18T01:53:13;9.30;99.90
12604;DHT22;6367;52.508;13.284;2023-11-18T01:55:40;9.30;99.90
12604;DHT22;6367;52.508;13.284;2023-11-18T01:58:06;9.30;99.90
12604;DHT22;6367;52.508;13.284;2023-11-18T02:00:37;9.40;99.90
12604;DHT22;6367;52.508;13.284;2023-11-18T02:03:04;9.30;99.90
12604;DHT22;6367;52.508;13.284;2023-11-18T02:05:31;9.40;99.90
12604;DHT22;6367;52.508;13.284;2023-11-18T02:07:59;9.50;99.90
12604;DHT22;6367;52.508;13.284;2023-11-18T02:10:26;10.00;99.90
12604;DHT22;6367;52.508;13.284;2023-11-18T02:13:04;9.30;99.90
12604;DHT22;6367;52.508;13.284;2023-11-18T02:15:33;9.40;99.90
12604;DHT22;6367;52.508;13.284;2023-11-18T02:18:02;10.20;99.90
12604;DHT22;6367;52.508;13.284;2023-11-18T02:20:29;9.40;99.90
12604;DHT22;6367;52.508;13.284;2023-11-18T02:22:56;9.70;99.90
12604;DHT22;6367;52.508;13.284;2023-11-18T02:25:24;9.30;99.90
12604;DHT22;6367;52.508;13.284;2023-11-18T02:27:52;9.30;99.90
12604;DHT22;6367;52.508;13.284;2023-11-18T02:30:19;9.70;99.90
12604;DHT22;6367;52.508;13.284;2023-11-18T02:33:00;9.30;99.90
12604;DHT22;6367;52.508;13.284;2023-11-18T02:35:34;9.30;99.90
12604;DHT22;6367;52.508;13.284;2023-11-18T02:38:03;9.80;99.90
12604;DHT22;6367;52.508;13.284;2023-11-18T02:40:39;9.40;99.90
12604;DHT22;6367;52.508;13.284;2023-11-18T02:43:07;9.30;99.90
12604;DHT22;6367;52.508;13.284;2023-11-18T02:45:35;9.20;99.90
12604;DHT22;6367;52.508;13.284;2023-11-18T02:48:02;8.50;99.90
12604;DHT22;6367;52.508;13.284;2023-11-18T02:50:28;9.30;99.90
12604;DHT22;6367;52.508;13.284;2023-11-18T02:52:55;9.30;99.90
12604;DHT22;6367;52.508;13.284;2023-11-18T02:55:21;9.30;99.90
12604;DHT22;6367;52.508;13.284;2023-11-18T02:57:48;9.30;99.90
12604;DHT22;6367;52.508;13.284;2023-11-18T03:00:15;9.30;99.90
12604;DHT22;6367;52.508;13.284;2023-11-18T03:02:47;9.30;99.90
12604;DHT22;6367;52.508;13.284;2023-11-18T03:05:14;9.40;99.90
12604;DHT22;6367;52.508;13.284;2023-11-18T03:07:50;9.50;99.90
12604;DHT22;6367;52.508;13.284;2023-11-18T03:10:19;8.80;99.90
12604;DHT22;6367;52.508;13.284;2023-11-18T03:12:52;9.40;99.90
12604;DHT22;6367;52.508;13.284;2023-11-18T03:15:18;9.40;99.90
12604;DHT22;6367;52.508;13.284;2023-11-18T03:17:45;9.40;99.90
12604;DHT22;6367;52.508;13.284;2023-11-18T03:20:12;9.40;99.90
12604;DHT22;6367;52.508;13.284;2023-11-18T03:22:40;9.40;99.90
12604;DHT22;6367;52.508;13.284;2023-11-18T03:25:06;9.80;99.90
12604;DHT22;6367;52.508;13.284;2023-11-18T03:27:33;9.40;99.90
12604;DHT22;6367;52.508;13.284;2023-11-18T03:29:59;9.40;99.90
12604;DHT22;6367;52.508;13.284;2023-11-18T03:32:24;9.50;99.90
12604;DHT22;6367;52.508;13.284;2023-11-18T03:34:50;9.40;99.90
12604;DHT22;6367;52.508;13.284;2023-11-18T03:37:16;9.40;99.90
12604;DHT22;6367;52.508;13.284;2023-11-18T03:39:41;9.40;99.90
12604;DHT22;6367;52.508;13.284;2023-11-18T03:42:07;9.40;99.90
12604;DHT22;6367;52.508;13.284;2023-11-18T03:44:33;9.40;99.90
12604;DHT22;6367;52.508;13.284;2023-11-18T03:46:59;9.40;99.90
12604;DHT22;6367;52.508;13.284;2023-11-18T03:49:25;9.40;99.90
12604;DHT22;6367;52.508;13.284;2023-11-18T03:51:50;9.40;99.90
12604;DHT22;6367;52.508;13.284;2023-11-18T03:54:16;9.40;99.90
12604;DHT22;6367;52.508;13.284;2023-11-18T03:56:42;10.10;99.90
12604;DHT22;6367;52.508;13.284;2023-11-18T03:59:07;9.50;99.90
12604;DHT22;6367;52.508;13.284;2023-11-18T04:01:33;9.40;99.90
12604;DHT22;6367;52.508;13.284;2023-11-18T04:03:59;9.40;99.90
12604;DHT22;6367;52.508;13.284;2023-11-18T04:06:25;9.40;99.90
12604;DHT22;6367;52.508;13.284;2023-11-18T04:08:51;9.30;99.90
12604;DHT22;6367;52.508;13.284;2023-11-18T04:11:17;9.30;99.90
12604;DHT22;6367;52.508;13.284;2023-11-18T04:13:44;9.30;99.90
12604;DHT22;6367;52.508;13.284;2023-11-18T04:16:16;9.30;99.90
12604;DHT22;6367;52.508;13.284;2023-11-18T04:18:43;9.20;99.90
12604;DHT22;6367;52.508;13.284;2023-11-18T04:21:09;9.20;99.90
12604;DHT22;6367;52.508;13.284;2023-11-18T04:23:40;10.00;99.90
12604;DHT22;6367;52.508;13.284;2023-11-18T04:26:06;9.70;99.90
12604;DHT22;6367;52.508;13.284;2023-11-18T04:28:33;9.20;99.90
12604;DHT22;6367;52.508;13.284;2023-11-18T04:30:59;9.20;99.90
12604;DHT22;6367;52.508;13.284;2023-11-18T04:33:25;9.20;99.90
12604;DHT22;6367;52.508;13.284;2023-11-18T04:35:54;9.30;99.90
12604;DHT22;6367;52.508;13.284;2023-11-18T04:38:19;9.20;99.90
12604;DHT22;6367;52.508;13.284;2023-11-18T04:40:45;9.10;99.90
12604;DHT22;6367;52.508;13.284;2023-11-18T04:43:12;9.20;99.90
12604;DHT22;6367;52.508;13.284;2023-11-18T04:45:37;9.20;99.90
12604;DHT22;6367;52.508;13.284;2023-11-18T04:48:04;9.20;99.90
12604;DHT22;6367;52.508;13.284;2023-11-18T04:50:31;9.20;99.90
12604;DHT22;6367;52.508;13.284;2023-11-18T04:52:58;9.30;99.90
12604;DHT22;6367;52.508;13.284;2023-11-18T04:55:24;9.30;99.90
12604;DHT22;6367;52.508;13.284;2023-11-18T04:57:51;9.30;99.90
12604;DHT22;6367;52.508;13.284;2023-11-18T05:00:17;9.30;99.90
12604;DHT22;6367;52.508;13.284;2023-11-18T05:02:45;9.30;99.90
12604;DHT22;6367;52.508;13.284;2023-11-18T05:05:14;9.30;99.90
12604;DHT22;6367;52.508;13.284;2023-11-18T05:07:40;9.20;99.90
12604;DHT22;6367;52.508;13.284;2023-11-18T05:10:06;9.20;99.90
12604;DHT22;6367;52.508;13.284;2023-11-18T05:12:39;9.10;99.90
12604;DHT22;6367;52.508;13.284;2023-11-18T05:15:06;9.80;99.90
12604;DHT22;6367;52.508;13.284;2023-11-18T05:17:37;9.20;99.90
12604;DHT22;6367;52.508;13.284;2023-11-18T05:20:03;9.20;99.90
12604;DHT22;6367;52.508;13.284;2023-11-18T05:22:29;9.10;99.90
12604;DHT22;6367;52.508;13.284;2023-11-18T05:24:55;9.20;99.90
12604;DHT22;6367;52.508;13.284;2023-11-18T05:27:21;9.20;99.90
12604;DHT22;6367;52.508;13.284;2023-11-18T05:29:46;9.30;99.90
12604;DHT22;6367;52.508;13.284;2023-11-18T05:32:22;9.20;99.90
12604;DHT22;6367;52.508;13.284;2023-11-18T05:34:51;9.10;99.90
12604;DHT22;6367;52.508;13.284;2023-11-18T05:37:19;9.90;99.90
12604;DHT22;6367;52.508;13.284;2023-11-18T05:39:45;9.20;99.90
12604;DHT22;6367;52.508;13.284;2023-11-18T05:42:11;9.10;99.90
12604;DHT22;6367;52.508;13.284;2023-11-18T05:44:38;9.10;99.90
12604;DHT22;6367;52.508;13.284;2023-11-18T05:47:08;9.10;99.90
12604;DHT22;6367;52.508;13.284;2023-11-18T05:49:37;9.10;99.90
12604;DHT22;6367;52.508;13.284;2023-11-18T05:52:04;9.20;99.90
12604;DHT22;6367;52.508;13.284;2023-11-18T05:54:30;9.20;99.90
12604;DHT22;6367;52.508;13.284;2023-11-18T05:56:56;9.20;99.90
12604;DHT22;6367;52.508;13.284;2023-11-18T05:59:26;9.20;99.90
12604;DHT22;6367;52.508;13.284;2023-11-18T06:01:52;9.20;99.90
12604;DHT22;6367;52.508;13.284;2023-11-18T06:04:18;9.30;99.90
12604;DHT22;6367;52.508;13.284;2023-11-18T06:06:43;9.20;99.90
12604;DHT22;6367;52.508;13.284;2023-11-18T06:09:09;9.10;99.90
12604;DHT22;6367;52.508;13.284;2023-11-18T06:11:43;9.40;99.90
12604;DHT22;6367;52.508;13.284;2023-11-18T06:14:10;9.20;99.90
12604;DHT22;6367;52.508;13.284;2023-11-18T06:16:37;9.40;99.90
12604;DHT22;6367;52.508;13.284;2023-11-18T06:19:05;9.80;99.90
12604;DHT22;6367;52.508;13.284;2023-11-18T06:21:31;9.90;99.90
12604;DHT22;6367;52.508;13.284;2023-11-18T06:23:58;9.20;99.90
12604;DHT22;6367;52.508;13.284;2023-11-18T06:26:24;9.60;99.90
12604;DHT22;6367;52.508;13.284;2023-11-18T06:28:52;9.30;99.90
12604;DHT22;6367;52.508;13.284;2023-11-18T06:31:20;9.20;99.90
12604;DHT22;6367;52.508;13.284;2023-11-18T06:33:47;9.20;99.90
12604;DHT22;6367;52.508;13.284;2023-11-18T06:36:17;9.70;99.90
12604;DHT22;6367;52.508;13.284;2023-11-18T06:38:44;9.20;99.90
12604;DHT22;6367;52.508;13.284;2023-11-18T06:41:10;9.20;99.90
12604;DHT22;6367;52.508;13.284;2023-11-18T06:43:41;9.20;99.90
12604;DHT22;6367;52.508;13.284;2023-11-18T06:46:18;9.20;99.90
12604;DHT22;6367;52.508;13.284;2023-11-18T06:48:48;9.20;99.90
12604;DHT22;6367;52.508;13.284;2023-11-18T06:51:17;9.10;99.90
12604;DHT22;6367;52.508;13.284;2023-11-18T06:53:43;9.20;99.90
12604;DHT22;6367;52.508;13.284;2023-11-18T06:56:09;9.20;99.90
12604;DHT22;6367;52.508;13.284;2023-11-18T06:58:38;9.30;99.90
12604;DHT22;6367;52.508;13.284;2023-11-18T07:01:04;9.20;99.90
12604;DHT22;6367;52.508;13.284;2023-11-18T07:03:31;9.30;99.90
12604;DHT22;6367;52.508;13.284;2023-11-18T07:05:57;9.30;99.90
12604;DHT22;6367;52.508;13.284;2023-11-18T07:08:23;9.30;99.90
12604;DHT22;6367;52.508;13.284;2023-11-18T07:10:49;9.20;99.90
12604;DHT22;6367;52.508;13.284;2023-11-18T07:13:15;9.20;99.90
12604;DHT22;6367;52.508;13.284;2023-11-18T07:15:42;9.30;99.90
12604;DHT22;6367;52.508;13.284;2023-11-18T07:18:08;9.30;99.90
12604;DHT22;6367;52.508;13.284;2023-11-18T07:22:31;9.20;99.90
12604;DHT22;6367;52.508;13.284;2023-11-18T07:24:57;9.10;99.90
12604;DHT22;6367;52.508;13.284;2023-11-18T07:27:23;8.90;99.90
12604;DHT22;6367;52.508;13.284;2023-11-18T07:29:48;9.50;99.90
12604;DHT22;6367;52.508;13.284;2023-11-18T07:32:14;9.20;99.90
12604;DHT22;6367;52.508;13.284;2023-11-18T07:34:39;9.20;99.90
12604;DHT22;6367;52.508;13.284;2023-11-18T07:37:06;9.30;99.90
12604;DHT22;6367;52.508;13.284;2023-11-18T07:39:34;9.30;99.90
12604;DHT22;6367;52.508;13.284;2023-11-18T07:42:14;9.30;99.90
12604;DHT22;6367;52.508;13.284;2023-11-18T07:44:43;9.40;99.90
12604;DHT22;6367;52.508;13.284;2023-11-18T07:47:09;9.40;99.90
12604;DHT22;6367;52.508;13.284;2023-11-18T07:49:37;9.40;99.90
12604;DHT22;6367;52.508;13.284;2023-11-18T07:52:03;9.40;99.90
12604;DHT22;6367;52.508;13.284;2023-11-18T07:54:28;9.40;99.90
12604;DHT22;6367;52.508;13.284;2023-11-18T07:56:54;9.40;99.90
12604;DHT22;6367;52.508;13.284;2023-11-18T07:59:20;9.40;99.90
12604;DHT22;6367;52.508;13.284;2023-11-18T08:01:46;9.50;99.90
12604;DHT22;6367;52.508;13.284;2023-11-18T08:04:14;9.50;99.90
12604;DHT22;6367;52.508;13.284;2023-11-18T08:06:40;9.50;99.90
12604;DHT22;6367;52.508;13.284;2023-11-18T08:09:06;9.50;99.90
12604;DHT22;6367;52.508;13.284;2023-11-18T08:11:40;9.60;99.90
12604;DHT22;6367;52.508;13.284;2023-11-18T08:14:09;9.50;99.90
12604;DHT22;6367;52.508;13.284;2023-11-18T08:16:35;9.50;99.90
12604;DHT22;6367;52.508;13.284;2023-11-18T08:19:01;9.50;99.90
12604;DHT22;6367;52.508;13.284;2023-11-18T08:21:28;9.50;99.90
12604;DHT22;6367;52.508;13.284;2023-11-18T08:23:54;9.50;99.90
12604;DHT22;6367;52.508;13.284;2023-11-18T08:26:19;10.30;99.90
12604;DHT22;6367;52.508;13.284;2023-11-18T08:28:45;9.70;99.90
12604;DHT22;6367;52.508;13.284;2023-11-18T08:31:13;9.70;99.90
12604;DHT22;6367;52.508;13.284;2023-11-18T08:33:42;9.70;99.90
12604;DHT22;6367;52.508;13.284;2023-11-18T08:36:08;9.60;99.90
12604;DHT22;6367;52.508;13.284;2023-11-18T08:38:35;9.60;99.90
12604;DHT22;6367;52.508;13.284;2023-11-18T08:41:01;9.60;99.90
12604;DHT22;6367;52.508;13.284;2023-11-18T08:43:29;9.50;99.90
12604;DHT22;6367;52.508;13.284;2023-11-18T08:45:55;9.60;99.90
12604;DHT22;6367;52.508;13.284;2023-11-18T08:48:22;9.60;99.90
12604;DHT22;6367;52.508;13.284;2023-11-18T08:50:48;9.70;99.90
12604;DHT22;6367;52.508;13.284;2023-11-18T08:53:15;9.70;99.90
12604;DHT22;6367;52.508;13.284;2023-11-18T08:55:44;9.80;99.90
12604;DHT22;6367;52.508;13.284;2023-11-18T08:58:22;9.90;99.90
12604;DHT22;6367;52.508;13.284;2023-11-18T09:01:01;9.90;99.90
12604;DHT22;6367;52.508;13.284;2023-11-18T09:03:40;9.80;99.90
12604;DHT22;6367;52.508;13.284;2023-11-18T09:06:14;9.80;99.90
12604;DHT22;6367;52.508;13.284;2023-11-18T09:08:44;10.40;99.90
12604;DHT22;6367;52.508;13.284;2023-11-18T09:11:15;9.90;99.90
12604;DHT22;6367;52.508;13.284;2023-11-18T09:14:04;9.90;99.90
12604;DHT22;6367;52.508;13.284;2023-11-18T09:16:32;9.90;99.90
12604;DHT22;6367;52.508;13.284;2023-11-18T09:19:04;10.00;99.90
12604;DHT22;6367;52.508;13.284;2023-11-18T09:21:32;10.00;99.90
12604;DHT22;6367;52.508;13.284;2023-11-18T09:24:01;10.00;99.90
12604;DHT22;6367;52.508;13.284;2023-11-18T09:26:33;10.60;99.90
12604;DHT22;6367;52.508;13.284;2023-11-18T09:29:00;9.90;99.90
12604;DHT22;6367;52.508;13.284;2023-11-18T09:31:29;10.20;99.90
12604;DHT22;6367;52.508;13.284;2023-11-18T09:33:56;10.00;99.90
12604;DHT22;6367;52.508;13.284;2023-11-18T09:36:23;10.00;99.90
12604;DHT22;6367;52.508;13.284;2023-11-18T09:38:49;10.00;99.90
12604;DHT22;6367;52.508;13.284;2023-11-18T09:41:19;10.00;99.90
12604;DHT22;6367;52.508;13.284;2023-11-18T09:43:49;10.00;99.90
12604;DHT22;6367;52.508;13.284;2023-11-18T09:46:27;10.00;99.90
12604;DHT22;6367;52.508;13.284;2023-11-18T09:51:59;9.90;99.90
12604;DHT22;6367;52.508;13.284;2023-11-18T09:57:39;9.10;99.90
12604;DHT22;6367;52.508;13.284;2023-11-18T10:00:11;10.00;99.90
12604;DHT22;6367;52.508;13.284;2023-11-18T10:02:53;10.00;99.90
12604;DHT22;6367;52.508;13.284;2023-11-18T10:05:21;10.10;99.90
12604;DHT22;6367;52.508;13.284;2023-11-18T10:07:49;10.20;99.90
12604;DHT22;6367;52.508;13.284;2023-11-18T10:10:17;10.20;99.90
12604;DHT22;6367;52.508;13.284;2023-11-18T10:12:47;10.20;99.90
12604;DHT22;6367;52.508;13.284;2023-11-18T10:15:24;10.20;99.90
12604;DHT22;6367;52.508;13.284;2023-11-18T10:17:51;10.10;99.90
12604;DHT22;6367;52.508;13.284;2023-11-18T10:20:47;10.20;99.90
12604;DHT22;6367;52.508;13.284;2023-11-18T10:23:17;10.20;99.90
12604;DHT22;6367;52.508;13.284;2023-11-18T10:28:27;10.10;99.90
12604;DHT22;6367;52.508;13.284;2023-11-18T10:31:01;10.10;99.90
12604;DHT22;6367;52.508;13.284;2023-11-18T10:33:41;10.60;99.90
12604;DHT22;6367;52.508;13.284;2023-11-18T10:36:21;10.20;99.90
12604;DHT22;6367;52.508;13.284;2023-11-18T10:38:52;10.20;99.90
12604;DHT22;6367;52.508;13.284;2023-11-18T10:41:21;10.20;99.90
12604;DHT22;6367;52.508;13.284;2023-11-18T10:43:48;10.20;99.90
12604;DHT22;6367;52.508;13.284;2023-11-18T10:46:16;10.30;99.90
12604;DHT22;6367;52.508;13.284;2023-11-18T10:48:49;10.60;99.90
12604;DHT22;6367;52.508;13.284;2023-11-18T10:51:17;10.30;99.90
12604;DHT22;6367;52.508;13.284;2023-11-18T10:53:47;10.40;99.90
12604;DHT22;6367;52.508;13.284;2023-11-18T10:56:26;10.40;99.90
12604;DHT22;6367;52.508;13.284;2023-11-18T10:59:03;10.40;99.90
12604;DHT22;6367;52.508;13.284;2023-11-18T11:01:38;10.30;99.90
12604;DHT22;6367;52.508;13.284;2023-11-18T11:04:08;9.60;99.90
12604;DHT22;6367;52.508;13.284;2023-11-18T11:06:41;10.20;99.90
12604;DHT22;6367;52.508;13.284;2023-11-18T11:09:10;10.10;99.90
12604;DHT22;6367;52.508;13.284;2023-11-18T11:11:49;9.90;99.90
12604;DHT22;6367;52.508;13.284;2023-11-18T11:14:16;10.70;99.90
12604;DHT22;6367;52.508;13.284;2023-11-18T11:16:51;10.10;99.90
12604;DHT22;6367;52.508;13.284;2023-11-18T11:19:28;10.10;99.90
12604;DHT22;6367;52.508;13.284;2023-11-18T11:22:03;9.90;99.90
12604;DHT22;6367;52.508;13.284;2023-11-18T11:24:53;9.80;99.90
12604;DHT22;6367;52.508;13.284;2023-11-18T11:27:28;9.90;99.90
12604;DHT22;6367;52.508;13.284;2023-11-18T11:30:23;9.80;99.90
12604;DHT22;6367;52.508;13.284;2023-11-18T11:33:28;9.90;99.90
12604;DHT22;6367;52.508;13.284;2023-11-18T11:35:59;10.00;99.90
12604;DHT22;6367;52.508;13.284;2023-11-18T11:38:28;10.10;99.90
12604;DHT22;6367;52.508;13.284;2023-11-18T11:40:54;10.10;99.90
12604;DHT22;6367;52.508;13.284;2023-11-18T11:43:21;10.30;99.90
12604;DHT22;6367;52.508;13.284;2023-11-18T11:45:49;10.00;99.90
12604;DHT22;6367;52.508;13.284;2023-11-18T11:48:18;9.90;99.90
12604;DHT22;6367;52.508;13.284;2023-11-18T11:54:06;9.80;99.90
12604;DHT22;6367;52.508;13.284;2023-11-18T11:56:44;9.70;99.90
12604;DHT22;6367;52.508;13.284;2023-11-18T11:59:15;9.70;99.90
12604;DHT22;6367;52.508;13.284;2023-11-18T12:01:41;9.80;99.90
12604;DHT22;6367;52.508;13.284;2023-11-18T12:04:15;9.70;99.90
12604;DHT22;6367;52.508;13.284;2023-11-18T12:06:48;9.60;99.90
12604;DHT22;6367;52.508;13.284;2023-11-18T12:09:19;9.70;99.90
12604;DHT22;6367;52.508;13.284;2023-11-18T12:11:45;9.60;99.90
12604;DHT22;6367;52.508;13.284;2023-11-18T12:14:15;9.70;99.90
12604;DHT22;6367;52.508;13.284;2023-11-18T12:17:04;9.80;99.90
12604;DHT22;6367;52.508;13.284;2023-11-18T12:19:37;9.80;99.90
12604;DHT22;6367;52.508;13.284;2023-11-18T12:22:22;9.70;99.90
12604;DHT22;6367;52.508;13.284;2023-11-18T12:33:04;9.90;99.90
12604;DHT22;6367;52.508;13.284;2023-11-18T12:41:37;10.00;99.90
12604;DHT22;6367;52.508;13.284;2023-11-18T12:44:15;10.00;99.90
12604;DHT22;6367;52.508;13.284;2023-11-18T12:46:54;9.80;99.90
12604;DHT22;6367;52.508;13.284;2023-11-18T12:49:26;10.10;99.90
12604;DHT22;6367;52.508;13.284;2023-11-18T12:51:54;9.80;99.90
12604;DHT22;6367;52.508;13.284;2023-11-18T12:54:22;9.80;99.90
12604;DHT22;6367;52.508;13.284;2023-11-18T12:56:50;9.80;99.90
12604;DHT22;6367;52.508;13.284;2023-11-18T12:59:19;9.80;99.90
12604;DHT22;6367;52.508;13.284;2023-11-18T13:01:52;9.80;99.90
12604;DHT22;6367;52.508;13.284;2023-11-18T13:04:24;9.90;99.90
12604;DHT22;6367;52.508;13.284;2023-11-18T13:06:50;9.90;99.90
12604;DHT22;6367;52.508;13.284;2023-11-18T13:09:17;10.40;99.90
12604;DHT22;6367;52.508;13.284;2023-11-18T13:11:56;9.90;99.90
12604;DHT22;6367;52.508;13.284;2023-11-18T13:14:26;9.90;99.90
12604;DHT22;6367;52.508;13.284;2023-11-18T13:16:56;10.20;99.90
12604;DHT22;6367;52.508;13.284;2023-11-18T13:19:26;9.90;99.90
12604;DHT22;6367;52.508;13.284;2023-11-18T13:22:05;9.90;99.90
12604;DHT22;6367;52.508;13.284;2023-11-18T13:24:38;9.80;99.90
12604;DHT22;6367;52.508;13.284;2023-11-18T13:27:15;9.80;99.90
12604;DHT22;6367;52.508;13.284;2023-11-18T13:29:44;9.80;99.90
12604;DHT22;6367;52.508;13.284;2023-11-18T13:32:15;9.70;99.90
12604;DHT22;6367;52.508;13.284;2023-11-18T13:34:41;9.80;99.90
12604;DHT22;6367;52.508;13.284;2023-11-18T13:37:08;9.80;99.90
12604;DHT22;6367;52.508;13.284;2023-11-18T13:39:34;10.50;99.90
12604;DHT22;6367;52.508;13.284;2023-11-18T13:42:24;9.80;99.90
12604;DHT22;6367;52.508;13.284;2023-11-18T13:44:53;9.80;99.90
12604;DHT22;6367;52.508;13.284;2023-11-18T13:47:26;9.90;99.90
12604;DHT22;6367;52.508;13.284;2023-11-18T13:49:54;9.90;99.90
12604;DHT22;6367;52.508;13.284;2023-11-18T13:52:20;9.90;99.90
12604;DHT22;6367;52.508;13.284;2023-11-18T13:54:49;9.90;99.90
12604;DHT22;6367;52.508;13.284;2023-11-18T13:57:21;9.90;99.90
12604;DHT22;6367;52.508;13.284;2023-11-18T13:59:49;9.80;99.90
12604;DHT22;6367;52.508;13.284;2023-11-18T14:02:15;9.90;99.90
12604;DHT22;6367;52.508;13.284;2023-11-18T14:04:42;9.80;99.90
12604;DHT22;6367;52.508;13.284;2023-11-18T14:07:14;9.80;99.90
12604;DHT22;6367;52.508;13.284;2023-11-18T14:09:41;9.80;99.90
12604;DHT22;6367;52.508;13.284;2023-11-18T14:12:12;9.80;99.90
12604;DHT22;6367;52.508;13.284;2023-11-18T14:14:38;10.30;99.90
12604;DHT22;6367;52.508;13.284;2023-11-18T14:17:07;9.60;99.90
12604;DHT22;6367;52.508;13.284;2023-11-18T14:19:35;9.50;99.90
12604;DHT22;6367;52.508;13.284;2023-11-18T14:22:02;9.40;99.90
12604;DHT22;6367;52.508;13.284;2023-11-18T14:24:34;9.60;99.90
12604;DHT22;6367;52.508;13.284;2023-11-18T14:27:00;9.60;99.90
12604;DHT22;6367;52.508;13.284;2023-11-18T14:29:26;9.50;99.90
12604;DHT22;6367;52.508;13.284;2023-11-18T14:31:53;9.50;99.90
12604;DHT22;6367;52.508;13.284;2023-11-18T14:34:19;9.40;99.90
12604;DHT22;6367;52.508;13.284;2023-11-18T14:36:45;9.30;99.90
12604;DHT22;6367;52.508;13.284;2023-11-18T14:39:11;9.30;99.90
12604;DHT22;6367;52.508;13.284;2023-11-18T14:41:39;9.40;99.90
12604;DHT22;6367;52.508;13.284;2023-11-18T14:44:06;9.30;99.90
12604;DHT22;6367;52.508;13.284;2023-11-18T14:46:35;10.20;99.90
12604;DHT22;6367;52.508;13.284;2023-11-18T14:49:00;9.40;99.90
12604;DHT22;6367;52.508;13.284;2023-11-18T14:51:26;9.40;99.90
12604;DHT22;6367;52.508;13.284;2023-11-18T14:53:52;9.50;99.90
12604;DHT22;6367;52.508;13.284;2023-11-18T14:56:18;9.50;99.90
12604;DHT22;6367;52.508;13.284;2023-11-18T14:58:44;9.90;99.90
12604;DHT22;6367;52.508;13.284;2023-11-18T15:01:14;9.40;99.90
12604;DHT22;6367;52.508;13.284;2023-11-18T15:03:40;9.30;99.90
12604;DHT22;6367;52.508;13.284;2023-11-18T15:06:06;9.30;99.90
12604;DHT22;6367;52.508;13.284;2023-11-18T15:08:35;9.20;99.90
12604;DHT22;6367;52.508;13.284;2023-11-18T15:11:01;9.20;99.90
12604;DHT22;6367;52.508;13.284;2023-11-18T15:13:27;9.20;99.90
12604;DHT22;6367;52.508;13.284;2023-11-18T15:15:53;8.30;99.90
12604;DHT22;6367;52.508;13.284;2023-11-18T15:18:18;9.10;99.90
12604;DHT22;6367;52.508;13.284;2023-11-18T15:20:45;9.20;99.90
12604;DHT22;6367;52.508;13.284;2023-11-18T15:23:11;9.20;99.90
12604;DHT22;6367;52.508;13.284;2023-11-18T15:25:37;9.00;99.90
12604;DHT22;6367;52.508;13.284;2023-11-18T15:28:04;8.90;99.90
12604;DHT22;6367;52.508;13.284;2023-11-18T15:30:35;9.70;99.90
12604;DHT22;6367;52.508;13.284;2023-11-18T15:33:01;9.10;99.90
12604;DHT22;6367;52.508;13.284;2023-11-18T15:35:27;9.20;99.90
12604;DHT22;6367;52.508;13.284;2023-11-18T15:37:54;9.10;99.90
12604;DHT22;6367;52.508;13.284;2023-11-18T15:40:20;9.70;99.90
12604;DHT22;6367;52.508;13.284;2023-11-18T15:42:51;9.00;99.90
12604;DHT22;6367;52.508;13.284;2023-11-18T15:45:21;9.10;99.90
12604;DHT22;6367;52.508;13.284;2023-11-18T15:47:50;9.00;99.90
12604;DHT22;6367;52.508;13.284;2023-11-18T15:50:16;9.10;99.90
12604;DHT22;6367;52.508;13.284;2023-11-18T15:52:46;9.10;99.90
12604;DHT22;6367;52.508;13.284;2023-11-18T15:55:13;9.10;99.90
12604;DHT22;6367;52.508;13.284;2023-11-18T15:57:43;9.00;99.90
12604;DHT22;6367;52.508;13.284;2023-11-18T16:00:10;8.20;99.90
12604;DHT22;6367;52.508;13.284;2023-11-18T16:02:47;9.00;99.90
12604;DHT22;6367;52.508;13.284;2023-11-18T16:05:17;9.00;99.90
12604;DHT22;6367;52.508;13.284;2023-11-18T16:07:48;9.00;99.90
12604;DHT22;6367;52.508;13.284;2023-11-18T16:10:16;9.20;99.90
12604;DHT22;6367;52.508;13.284;2023-11-18T16:12:52;9.10;99.90
12604;DHT22;6367;52.508;13.284;2023-11-18T16:15:20;9.10;99.90
12604;DHT22;6367;52.508;13.284;2023-11-18T16:17:47;9.20;99.90
12604;DHT22;6367;52.508;13.284;2023-11-18T16:20:15;9.10;99.90
12604;DHT22;6367;52.508;13.284;2023-11-18T16:22:49;8.90;99.90